Time;durP1;ratioP1;P1;durP2;ratioP2;P2;SDS_P1;SDS_P2;PMS_P1;PMS_P2;Temp;Humidity;BMP_temperature;BMP_pressure;BME280_temperature;BME280_humidity;BME280_pressure;Samples;Min_cycle;Max_cycle;Signal;HPM_P1;HPM_P2
2022/08/08 00:00:44;;;;;;;6.20;2.10;;;17.10;99.90;;;;;;5049025;28;20894;-54
2022/08/08 00:03:21;;;;;;;5.30;1.67;;;17.00;99.90;;;;;;5048822;28;20424;-54
2022/08/08 00:06:00;;;;;;;5.82;1.92;;;16.80;99.90;;;;;;5050228;28;20365;-54
2022/08/08 00:08:30;;;;;;;5.78;2.10;;;16.70;99.90;;;;;;5049411;28;20451;-54
2022/08/08 00:11:14;;;;;;;5.72;1.80;;;16.70;99.90;;;;;;5049471;28;20413;-54
2022/08/08 00:13:42;;;;;;;5.90;2.00;;;16.70;99.90;;;;;;5049358;28;20944;-54
2022/08/08 00:16:21;;;;;;;5.90;2.03;;;16.60;99.90;;;;;;5048967;28;20442;-55
2022/08/08 00:18:49;;;;;;;6.80;1.97;;;16.50;99.90;;;;;;5049469;28;20386;-54
2022/08/08 00:21:21;;;;;;;8.10;2.30;;;16.40;99.90;;;;;;5048687;28;20389;-53
2022/08/08 00:23:56;;;;;;;6.20;1.80;;;16.40;99.90;;;;;;5049440;28;20443;-54
2022/08/08 00:26:35;;;;;;;6.75;2.00;;;16.30;99.90;;;;;;5049096;28;20435;-53
2022/08/08 00:29:10;;;;;;;7.10;2.00;;;16.30;99.90;;;;;;5046958;28;20408;-54
2022/08/08 00:31:57;;;;;;;6.80;1.90;;;16.20;99.90;;;;;;5047729;28;20850;-53
2022/08/08 00:35:09;;;;;;;5.80;1.88;;;16.20;99.90;;;;;;5048281;28;20396;-54
2022/08/08 00:37:57;;;;;;;5.90;2.00;;;16.10;99.90;;;;;;5046902;28;20420;-57
2022/08/08 00:40:28;;;;;;;5.90;1.73;;;16.10;99.90;;;;;;5048030;28;20504;-54
2022/08/08 00:43:07;;;;;;;6.80;2.07;;;16.10;99.90;;;;;;5046591;28;20684;-54
2022/08/08 00:46:06;;;;;;;5.90;1.92;;;16.00;99.90;;;;;;5049172;28;20447;-54
2022/08/08 00:48:41;;;;;;;5.65;1.80;;;16.10;99.90;;;;;;5046594;28;20385;-54
2022/08/08 00:51:40;;;;;;;6.65;1.90;;;16.20;99.90;;;;;;5048634;28;20413;-54
2022/08/08 00:54:27;;;;;;;5.80;1.80;;;16.20;99.90;;;;;;5048482;28;20893;-54
2022/08/08 00:57:16;;;;;;;5.50;1.70;;;16.10;99.90;;;;;;5047261;28;20523;-54
2022/08/08 01:00:13;;;;;;;6.05;1.80;;;16.20;99.90;;;;;;5042077;28;20410;-54
2022/08/08 01:03:09;;;;;;;5.50;1.73;;;16.20;99.90;;;;;;5049958;28;20393;-53
2022/08/08 01:06:11;;;;;;;5.60;2.00;;;16.10;99.90;;;;;;5046910;28;20946;-54
2022/08/08 01:08:49;;;;;;;6.82;1.90;;;15.90;99.90;;;;;;5048418;28;20401;-54
2022/08/08 01:11:43;;;;;;;5.60;2.00;;;15.90;99.90;;;;;;5046786;28;20393;-53
2022/08/08 01:14:43;;;;;;;7.22;2.00;;;15.90;99.90;;;;;;5033672;28;20488;-54
2022/08/08 01:17:45;;;;;;;6.07;2.00;;;15.80;99.90;;;;;;5051892;28;20909;-54
2022/08/08 01:20:34;;;;;;;5.40;1.80;;;15.70;99.90;;;;;;5049243;28;20427;-54
2022/08/08 01:23:37;;;;;;;6.27;1.97;;;15.70;99.90;;;;;;5003870;28;20476;-54
2022/08/08 01:26:40;;;;;;;9.50;1.90;;;15.80;99.90;;;;;;5050895;28;20412;-54
2022/08/08 01:29:25;;;;;;;6.90;2.10;;;15.70;99.90;;;;;;5050497;28;20917;-54
2022/08/08 01:32:28;;;;;;;5.97;1.80;;;16.20;99.90;;;;;;5049325;28;20878;-54
2022/08/08 01:35:28;;;;;;;5.80;2.10;;;15.70;99.90;;;;;;5051766;28;20808;-54
2022/08/08 01:38:24;;;;;;;5.63;1.90;;;15.70;99.90;;;;;;4995752;28;20468;-54
2022/08/08 01:41:00;;;;;;;5.53;1.77;;;15.70;99.90;;;;;;5048289;28;20401;-53
2022/08/08 01:44:02;;;;;;;6.18;1.77;;;15.40;99.90;;;;;;5052241;28;20477;-54
2022/08/08 01:46:50;;;;;;;6.00;2.17;;;15.40;99.90;;;;;;5050816;28;20390;-54
2022/08/08 01:49:21;;;;;;;5.78;1.80;;;15.50;99.90;;;;;;5050622;28;20907;-54
2022/08/08 01:52:11;;;;;;;5.77;1.90;;;15.50;99.90;;;;;;5052207;28;20400;-54
2022/08/08 01:55:06;;;;;;;5.80;1.60;;;15.50;99.90;;;;;;5051912;28;20392;-54
2022/08/08 01:57:53;;;;;;;6.20;2.00;;;15.40;99.90;;;;;;5047079;28;20467;-54
2022/08/08 02:00:41;;;;;;;6.30;2.10;;;15.30;99.90;;;;;;5051999;28;20443;-55
2022/08/08 02:03:30;;;;;;;6.65;1.92;;;15.30;99.90;;;;;;5023331;28;20397;-54
2022/08/08 02:06:19;;;;;;;6.00;1.90;;;15.10;99.90;;;;;;5050682;28;20393;-61
2022/08/08 02:09:27;;;;;;;5.20;1.63;;;15.10;99.90;;;;;;5051935;28;20472;-54
2022/08/08 02:11:53;;;;;;;5.93;2.08;;;15.10;99.90;;;;;;5051096;28;20413;-54
2022/08/08 02:14:45;;;;;;;6.30;2.10;;;15.00;99.90;;;;;;5050874;28;20476;-54
2022/08/08 02:17:39;;;;;;;5.45;1.90;;;15.00;99.90;;;;;;5050334;28;20405;-54
2022/08/08 02:20:10;;;;;;;5.40;1.90;;;15.10;99.90;;;;;;5050297;28;20744;-54
2022/08/08 02:22:55;;;;;;;6.32;2.20;;;15.10;99.90;;;;;;5050938;28;20426;-54
2022/08/08 02:25:30;;;;;;;5.60;2.08;;;15.00;1.00;;;;;;5048250;28;20405;-56
2022/08/08 02:28:28;;;;;;;5.73;1.90;;;15.00;1.00;;;;;;5031945;28;20397;-55
2022/08/08 02:31:29;;;;;;;5.40;2.00;;;14.90;1.00;;;;;;5015484;28;20397;-55
2022/08/08 02:34:18;;;;;;;5.88;2.03;;;14.90;1.00;;;;;;5050788;28;20397;-61
2022/08/08 02:37:20;;;;;;;9.50;1.95;;;14.80;1.00;;;;;;5049083;28;20501;-56
2022/08/08 02:40:10;;;;;;;7.50;2.20;;;14.80;1.00;;;;;;5049343;28;20393;-56
2022/08/08 02:42:52;;;;;;;6.20;2.20;;;14.70;99.90;;;;;;5050902;28;20472;-55
2022/08/08 02:45:33;;;;;;;5.80;1.80;;;14.80;29.30;;;;;;5050755;28;20855;-54
2022/08/08 02:48:11;;;;;;;6.00;2.08;;;14.90;1.00;;;;;;5050509;28;20378;-55
2022/08/08 02:50:55;;;;;;;5.60;1.90;;;14.90;95.10;;;;;;5050870;28;20799;-53
2022/08/08 02:53:33;;;;;;;5.97;1.83;;;14.80;99.90;;;;;;5047992;28;20393;-54
2022/08/08 02:56:02;;;;;;;5.30;2.00;;;;;;;;;;5050144;28;20477;-61
2022/08/08 02:58:52;;;;;;;5.63;1.73;;;14.60;99.90;;;;;;5050911;28;20416;-53
2022/08/08 03:01:27;;;;;;;6.15;2.00;;;14.60;99.90;;;;;;5050282;28;20634;-53
2022/08/08 03:04:34;;;;;;;6.03;2.13;;;14.60;99.90;;;;;;5051094;28;20390;-55
2022/08/08 03:07:02;;;;;;;7.00;2.25;;;14.60;99.90;;;;;;5050099;28;20429;-62
2022/08/08 03:09:46;;;;;;;6.05;2.13;;;14.60;99.90;;;;;;5050531;28;20782;-59
2022/08/08 03:12:49;;;;;;;6.10;2.10;;;14.50;99.90;;;;;;5048986;28;20905;-55
2022/08/08 03:15:52;;;;;;;6.63;2.10;;;14.50;1.00;;;;;;5049688;28;20404;-58
2022/08/08 03:18:32;;;;;;;6.20;2.00;;;14.60;1.00;;;;;;5032041;28;20422;-56
2022/08/08 03:20:59;;;;;;;7.10;2.63;;;14.60;1.00;;;;;;5050307;28;20412;-58
2022/08/08 03:23:26;;;;;;;6.07;2.30;;;14.60;99.90;;;;;;5051251;28;20402;-55
2022/08/08 03:25:53;;;;;;;6.30;2.30;;;;;;;;;;5049726;28;20412;-54
2022/08/08 03:28:49;;;;;;;6.57;2.22;;;14.60;99.90;;;;;;5048522;28;21068;-53
2022/08/08 03:34:04;;;;;;;7.72;2.35;;;14.70;99.90;;;;;;5048192;28;20433;-55
2022/08/08 03:36:30;;;;;;;6.20;2.30;;;14.70;99.90;;;;;;5049858;28;20481;-54
2022/08/08 03:38:57;;;;;;;6.30;2.30;;;;;;;;;;5049135;28;20397;-56
2022/08/08 03:41:31;;;;;;;6.00;2.30;;;14.60;99.90;;;;;;5049930;28;20401;-55
2022/08/08 03:43:57;;;;;;;7.32;2.13;;;;;;;;;;5049709;28;20393;-61
2022/08/08 03:46:23;;;;;;;6.95;2.60;;;14.60;99.90;;;;;;5049667;28;20385;-55
2022/08/08 03:49:00;;;;;;;6.00;2.20;;;14.50;99.90;;;;;;5050178;28;20389;-55
2022/08/08 03:51:26;;;;;;;7.18;2.20;;;14.30;99.90;;;;;;5030629;28;20391;-55
2022/08/08 03:53:53;;;;;;;6.10;2.00;;;14.40;99.90;;;;;;5047548;28;20925;-50
2022/08/08 03:56:20;;;;;;;6.90;1.98;;;14.40;1.00;;;;;;5049532;28;20393;-53
2022/08/08 03:58:51;;;;;;;5.88;2.20;;;14.40;1.00;;;;;;5049984;28;20390;-53
2022/08/08 04:01:18;;;;;;;6.10;2.33;;;;;;;;;;5049089;28;20413;-54
2022/08/08 04:03:47;;;;;;;6.73;2.57;;;;;;;;;;5050398;28;20381;-54
2022/08/08 04:06:14;;;;;;;6.10;2.25;;;;;;;;;;5048806;28;20785;-53
2022/08/08 04:08:40;;;;;;;6.93;2.47;;;;;;;;;;5049333;28;20382;-54
2022/08/08 04:11:07;;;;;;;6.10;2.22;;;;;;;;;;5048277;28;20472;-53
2022/08/08 04:13:33;;;;;;;6.38;2.40;;;;;;;;;;5046573;28;20804;-60
2022/08/08 04:15:59;;;;;;;6.57;2.25;;;;;;;;;;5040243;28;20421;-53
2022/08/08 04:18:25;;;;;;;6.43;2.40;;;;;;;;;;5050296;28;20428;-57
2022/08/08 04:20:51;;;;;;;7.07;2.20;;;;;;;;;;5049350;28;20393;-52
2022/08/08 04:23:17;;;;;;;6.10;2.25;;;;;;;;;;5048684;28;20408;-52
2022/08/08 04:25:43;;;;;;;7.03;2.30;;;;;;;;;;5049627;28;20385;-53
2022/08/08 04:28:09;;;;;;;6.75;2.50;;;14.40;99.90;;;;;;5048420;28;20410;-53
2022/08/08 04:30:35;;;;;;;13.05;5.13;;;14.40;1.00;;;;;;5049368;28;20389;-53
2022/08/08 04:33:01;;;;;;;11.50;5.15;;;14.40;1.00;;;;;;5046876;28;20424;-61
2022/08/08 04:35:27;;;;;;;10.63;3.70;;;14.20;1.00;;;;;;5047677;28;20401;-53
2022/08/08 04:37:53;;;;;;;21.10;7.20;;;14.30;1.00;;;;;;5046808;28;20409;-54
2022/08/08 04:40:20;;;;;;;8.27;2.90;;;14.30;1.00;;;;;;5046889;28;20422;-59
2022/08/08 04:42:46;;;;;;;5.85;2.20;;;14.40;1.00;;;;;;5047493;28;20409;-53
2022/08/08 04:45:12;;;;;;;5.93;2.10;;;14.40;1.00;;;;;;5048678;28;20389;-55
2022/08/08 04:47:38;;;;;;;7.90;2.10;;;14.60;99.90;;;;;;5052313;28;20401;-55
2022/08/08 04:50:04;;;;;;;6.90;2.40;;;14.70;99.90;;;;;;5051383;28;20848;-54
2022/08/08 04:52:30;;;;;;;5.93;2.00;;;14.60;1.00;;;;;;5052645;28;20389;-53
2022/08/08 04:54:56;;;;;;;7.00;2.20;;;14.60;1.00;;;;;;5051944;28;20412;-53
2022/08/08 04:57:21;;;;;;;7.82;2.20;;;14.80;1.00;;;;;;5051588;28;20544;-54
2022/08/08 04:59:47;;;;;;;7.23;2.50;;;15.10;99.90;;;;;;5052493;28;20404;-54
2022/08/08 05:02:13;;;;;;;8.93;2.20;;;15.40;99.90;;;;;;5051136;28;20421;-55
2022/08/08 05:04:39;;;;;;;8.40;2.42;;;;;;;;;;5052195;28;20484;-53
2022/08/08 05:07:04;;;;;;;10.05;2.70;;;16.90;99.90;;;;;;5051661;28;20373;-54
2022/08/08 05:09:30;;;;;;;7.20;2.90;;;;;;;;;;5052259;28;20386;-53
2022/08/08 05:11:57;;;;;;;9.03;2.57;;;;;;;;;;5052840;28;20450;-54
2022/08/08 05:14:22;;;;;;;6.47;2.30;;;20.30;51.70;;;;;;5052764;28;21053;-54
2022/08/08 05:16:48;;;;;;;6.60;2.40;;;21.40;1.00;;;;;;5053287;28;20405;-54
2022/08/08 05:19:14;;;;;;;6.10;2.30;;;22.00;1.00;;;;;;5052173;28;20385;-54
2022/08/08 05:21:43;;;;;;;6.60;2.28;;;22.50;99.90;;;;;;5052702;28;20715;-54
2022/08/08 05:24:10;;;;;;;6.27;2.30;;;23.20;99.90;;;;;;5050656;28;20476;-62
2022/08/08 05:26:37;;;;;;;6.00;2.20;;;24.30;99.90;;;;;;5052334;28;20413;-62
2022/08/08 05:29:07;;;;;;;7.93;2.40;;;25.00;99.90;;;;;;5051946;28;20539;-62
2022/08/08 05:31:34;;;;;;;6.45;2.13;;;25.60;99.90;;;;;;5052678;28;20386;-62
2022/08/08 05:34:00;;;;;;;6.53;2.47;;;25.50;99.90;;;;;;5050757;28;20409;-64
2022/08/08 05:36:28;;;;;;;6.00;2.70;;;26.50;99.90;;;;;;5053442;28;20744;-61
2022/08/08 05:38:56;;;;;;;6.97;3.00;;;27.30;99.90;;;;;;5063954;28;20393;-61
2022/08/08 05:41:23;;;;;;;10.05;3.28;;;27.30;99.90;;;;;;5055223;28;20412;-60
2022/08/08 05:43:58;;;;;;;6.90;2.70;;;27.80;99.90;;;;;;5051507;28;20397;-60
2022/08/08 05:46:25;;;;;;;7.00;3.00;;;28.30;99.90;;;;;;5061679;28;20463;-61
2022/08/08 05:48:53;;;;;;;6.43;3.67;;;28.90;99.90;;;;;;5057262;28;20439;-60
2022/08/08 05:51:20;;;;;;;6.53;4.03;;;29.10;99.90;;;;;;5051837;28;20378;-61
2022/08/08 05:53:46;;;;;;;6.15;3.70;;;29.80;99.90;;;;;;5052561;28;20484;-60
2022/08/08 05:56:13;;;;;;;6.25;4.30;;;30.70;99.90;;;;;;5051734;28;20477;-61
2022/08/08 05:58:41;;;;;;;6.35;4.28;;;31.20;99.90;;;;;;5051589;28;20409;-60
2022/08/08 06:01:10;;;;;;;7.90;5.50;;;31.40;99.90;;;;;;5052040;28;20382;-60
2022/08/08 06:03:40;;;;;;;7.97;4.75;;;31.60;99.90;;;;;;5049681;28;20862;-60
2022/08/08 06:06:08;;;;;;;7.70;4.97;;;32.20;99.90;;;;;;5048630;28;20409;-60
2022/08/08 06:08:42;;;;;;;8.75;5.50;;;32.10;99.90;;;;;;5052031;28;20399;-60
2022/08/08 06:11:09;;;;;;;7.00;5.40;;;;;;;;;;5031415;28;20398;-61
2022/08/08 06:13:34;;;;;;;8.13;5.50;;;33.90;1.00;;;;;;5037084;28;20717;-60
2022/08/08 06:16:00;;;;;;;7.82;5.70;;;;;;;;;;5051478;28;20465;-65
2022/08/08 06:18:28;;;;;;;11.00;5.95;;;32.90;99.90;;;;;;5051916;28;20488;-61
2022/08/08 06:20:56;;;;;;;9.00;5.90;;;33.80;1.00;;;;;;5052025;28;20386;-61
2022/08/08 06:23:22;;;;;;;7.72;5.70;;;;;;;;;;5051071;28;20468;-60
2022/08/08 06:26:03;;;;;;;9.73;5.80;;;33.70;99.90;;;;;;5051826;28;20477;-60
2022/08/08 06:28:36;;;;;;;8.38;6.03;;;34.20;99.90;;;;;;5052423;28;20422;-61
2022/08/08 06:31:05;;;;;;;8.80;5.70;;;34.50;99.90;;;;;;5051123;28;20878;-61
2022/08/08 06:33:43;;;;;;;8.25;6.05;;;32.60;99.90;;;;;;5052205;28;20378;-61
2022/08/08 06:36:11;;;;;;;7.30;5.10;;;31.80;99.90;;;;;;5050667;28;20408;-60
2022/08/08 06:38:44;;;;;;;8.85;5.88;;;31.30;99.90;;;;;;5051706;28;20412;-60
2022/08/08 06:41:12;;;;;;;7.00;5.10;;;31.20;99.90;;;;;;5050608;28;20390;-60
2022/08/08 06:43:42;;;;;;;8.10;5.20;;;31.90;99.90;;;;;;5051466;28;20401;-60
2022/08/08 06:46:08;;;;;;;7.30;5.38;;;32.80;99.90;;;;;;5050923;28;20393;-60
2022/08/08 06:48:35;;;;;;;8.43;5.70;;;33.40;99.90;;;;;;5051579;28;20376;-60
2022/08/08 06:51:03;;;;;;;7.25;5.03;;;34.50;99.90;;;;;;5051365;28;20373;-65
2022/08/08 06:53:29;;;;;;;7.60;6.13;;;33.60;99.90;;;;;;5051221;28;20425;-60
2022/08/08 06:55:55;;;;;;;8.80;6.47;;;32.90;99.90;;;;;;5051457;28;20386;-60
2022/08/08 06:58:20;;;;;;;7.40;5.90;;;32.90;99.90;;;;;;5049061;28;20720;-60
2022/08/08 07:00:49;;;;;;;7.65;5.50;;;33.20;99.90;;;;;;5050124;28;20397;-60
2022/08/08 07:03:33;;;;;;;8.02;4.70;;;33.10;99.90;;;;;;5050531;28;20392;-60
2022/08/08 07:06:02;;;;;;;7.32;5.80;;;34.50;99.90;;;;;;5051470;28;20850;-61
2022/08/08 07:08:36;;;;;;;6.88;5.10;;;34.20;99.90;;;;;;5050550;28;20443;-63
2022/08/08 07:11:04;;;;;;;7.40;5.07;;;34.30;99.90;;;;;;5050684;28;20377;-61
2022/08/08 07:13:42;;;;;;;7.00;5.00;;;34.10;99.90;;;;;;5051225;28;20389;-61
2022/08/08 07:16:43;;;;;;;8.30;4.80;;;35.10;99.90;;;;;;5049736;28;20542;-61
2022/08/08 07:19:11;;;;;;;8.60;5.20;;;35.10;99.90;;;;;;5050168;28;20440;-61
2022/08/08 07:21:54;;;;;;;7.05;5.18;;;35.40;99.90;;;;;;5050531;28;20417;-61
2022/08/08 07:24:28;;;;;;;8.33;6.00;;;36.30;99.90;;;;;;5050527;28;20377;-61
2022/08/08 07:26:55;;;;;;;6.93;5.07;;;36.60;99.90;;;;;;5051214;28;20397;-61
2022/08/08 07:29:22;;;;;;;8.15;5.80;;;36.10;99.90;;;;;;5050335;28;20422;-61
2022/08/08 07:31:48;;;;;;;8.00;5.30;;;35.60;99.90;;;;;;5050927;28;20803;-61
2022/08/08 07:34:16;;;;;;;8.30;5.82;;;34.50;99.90;;;;;;5049763;28;20880;-60
2022/08/08 07:36:42;;;;;;;7.80;5.90;;;34.80;99.90;;;;;;5050442;28;20400;-60
2022/08/08 07:39:08;;;;;;;7.28;6.10;;;34.80;99.90;;;;;;5049937;28;20477;-61
2022/08/08 07:41:40;;;;;;;7.90;4.70;;;35.00;99.90;;;;;;5050219;28;20389;-61
2022/08/08 07:44:07;;;;;;;7.57;5.20;;;35.50;99.90;;;;;;5050147;28;20389;-61
2022/08/08 07:46:33;;;;;;;7.05;4.18;;;34.70;99.90;;;;;;5050742;28;20460;-61
2022/08/08 07:48:58;;;;;;;7.10;4.40;;;34.70;99.90;;;;;;5050637;28;20504;-61
2022/08/08 07:51:24;;;;;;;7.87;5.00;;;34.90;99.90;;;;;;5050019;28;20423;-61
2022/08/08 07:54:18;;;;;;;7.90;4.30;;;35.30;99.90;;;;;;5050570;28;20798;-61
2022/08/08 07:57:15;;;;;;;7.35;5.30;;;35.40;99.90;;;;;;5049861;28;20867;-61
2022/08/08 08:00:04;;;;;;;6.47;3.58;;;35.50;99.90;;;;;;5047124;28;20389;-61
2022/08/08 08:02:38;;;;;;;7.82;4.85;;;35.30;99.90;;;;;;5050255;28;20385;-61
2022/08/08 08:05:11;;;;;;;7.83;6.80;;;35.80;99.90;;;;;;5049823;28;20374;-61
2022/08/08 08:07:40;;;;;;;8.90;6.90;;;35.80;99.90;;;;;;5049902;28;20377;-61
2022/08/08 08:10:09;;;;;;;7.95;6.60;;;35.00;99.90;;;;;;5049700;28;20386;-61
2022/08/08 08:12:36;;;;;;;8.18;3.80;;;35.80;99.90;;;;;;5050147;28;20378;-61
2022/08/08 08:15:05;;;;;;;7.00;3.00;;;36.50;99.90;;;;;;5049438;28;20388;-61
2022/08/08 08:17:34;;;;;;;8.10;3.33;;;36.60;99.90;;;;;;5050159;28;20401;-60
2022/08/08 08:20:03;;;;;;;7.10;3.38;;;37.20;99.90;;;;;;5049719;28;20420;-61
2022/08/08 08:22:29;;;;;;;5.90;2.60;;;37.00;99.90;;;;;;5049410;28;20862;-61
2022/08/08 08:24:54;;;;;;;6.23;3.07;;;37.50;99.90;;;;;;5049787;28;20385;-61
2022/08/08 08:27:20;;;;;;;8.50;4.95;;;38.60;99.90;;;;;;5049263;28;20417;-61
2022/08/08 08:29:46;;;;;;;11.32;10.32;;;40.20;99.90;;;;;;5050381;28;20863;-61
2022/08/08 08:32:12;;;;;;;9.07;3.70;;;39.90;99.90;;;;;;5048922;28;20381;-61
2022/08/08 08:34:38;;;;;;;7.35;3.42;;;39.10;99.90;;;;;;5049962;28;20377;-61
2022/08/08 08:37:04;;;;;;;7.40;3.27;;;38.30;99.90;;;;;;5049288;28;20398;-65
2022/08/08 08:39:29;;;;;;;7.50;3.30;;;39.10;99.90;;;;;;5049151;28;20416;-61
2022/08/08 08:41:57;;;;;;;7.00;3.37;;;39.70;99.90;;;;;;5049440;28;20381;-60
2022/08/08 08:44:24;;;;;;;7.20;3.50;;;39.10;99.90;;;;;;5031699;28;20723;-60
2022/08/08 08:46:51;;;;;;;9.98;3.25;;;38.00;99.90;;;;;;5049521;28;20384;-60
2022/08/08 08:49:17;;;;;;;7.10;5.60;;;37.50;99.90;;;;;;5049227;28;20393;-60
2022/08/08 08:51:45;;;;;;;8.10;6.70;;;36.40;99.90;;;;;;5049612;28;20385;-60
2022/08/08 08:54:13;;;;;;;8.60;7.57;;;36.60;99.90;;;;;;5048190;28;20868;-60
2022/08/08 08:56:40;;;;;;;8.50;7.07;;;36.60;99.90;;;;;;5049589;28;20476;-61
2022/08/08 08:59:06;;;;;;;8.38;7.38;;;37.00;99.90;;;;;;5049021;28;20409;-65
2022/08/08 09:01:37;;;;;;;8.18;7.30;;;38.70;99.90;;;;;;5049302;28;20389;-61
2022/08/08 09:04:20;;;;;;;8.73;7.60;;;39.30;99.90;;;;;;5048998;28;20443;-67
2022/08/08 09:06:49;;;;;;;8.57;7.15;;;38.90;99.90;;;;;;5049394;28;20396;-61
2022/08/08 09:09:24;;;;;;;8.20;6.90;;;39.20;99.90;;;;;;5048468;28;20416;-61
2022/08/08 09:11:52;;;;;;;8.23;6.70;;;38.60;99.90;;;;;;5049042;28;20858;-61
2022/08/08 09:14:23;;;;;;;7.57;6.50;;;37.70;99.90;;;;;;5048879;28;20373;-61
2022/08/08 09:16:51;;;;;;;8.20;5.90;;;38.90;99.90;;;;;;5049457;28;20539;-61
2022/08/08 09:19:17;;;;;;;7.50;6.43;;;38.90;99.90;;;;;;5048707;28;20381;-62
2022/08/08 09:21:47;;;;;;;8.10;6.70;;;38.90;99.90;;;;;;5049317;28;20930;-61
2022/08/08 09:24:16;;;;;;;9.30;6.80;;;39.30;99.90;;;;;;5048371;28;20469;-62
2022/08/08 09:26:57;;;;;;;8.05;6.88;;;39.80;99.90;;;;;;5049462;28;20389;-61
2022/08/08 09:29:24;;;;;;;8.10;6.40;;;39.60;99.90;;;;;;5048261;28;20493;-61
2022/08/08 09:31:53;;;;;;;8.13;6.47;;;38.60;99.90;;;;;;5049365;28;20373;-61
2022/08/08 09:34:23;;;;;;;11.60;7.03;;;38.10;99.90;;;;;;5051593;28;20381;-63
2022/08/08 09:36:59;;;;;;;7.00;6.30;;;37.50;99.90;;;;;;5053153;28;20424;-61
2022/08/08 09:39:29;;;;;;;9.80;6.90;;;38.50;99.90;;;;;;5051828;28;20977;-61
2022/08/08 09:42:02;;;;;;;7.90;6.50;;;38.00;99.90;;;;;;5053095;28;20484;-61
2022/08/08 09:44:43;;;;;;;7.80;6.50;;;38.40;99.90;;;;;;5051748;28;20812;-61
2022/08/08 09:47:09;;;;;;;7.03;6.32;;;38.40;99.90;;;;;;5052440;28;20864;-61
2022/08/08 09:49:36;;;;;;;7.10;6.40;;;38.80;99.90;;;;;;5034689;28;20456;-62
2022/08/08 09:52:03;;;;;;;7.80;6.80;;;38.90;99.90;;;;;;5052847;28;20376;-61
2022/08/08 09:54:42;;;;;;;9.40;6.38;;;39.20;99.90;;;;;;5051480;28;20377;-59
2022/08/08 09:57:10;;;;;;;7.40;6.50;;;39.80;99.90;;;;;;5052210;28;20757;-60
2022/08/08 09:59:40;;;;;;;8.05;6.88;;;39.00;99.90;;;;;;5052578;28;20386;-61
2022/08/08 10:02:18;;;;;;;7.75;6.28;;;38.50;99.90;;;;;;5051912;28;20443;-65
2022/08/08 10:04:44;;;;;;;7.13;5.80;;;38.40;99.90;;;;;;5052359;28;20734;-60
2022/08/08 10:07:14;;;;;;;8.15;6.97;;;38.60;99.90;;;;;;5051766;28;20723;-60
2022/08/08 10:09:42;;;;;;;8.90;7.00;;;37.90;99.90;;;;;;5052373;28;20473;-61
2022/08/08 10:12:09;;;;;;;10.40;7.53;;;38.10;99.90;;;;;;5051803;28;20515;-60
2022/08/08 10:14:37;;;;;;;7.40;6.60;;;37.90;99.90;;;;;;5052255;28;20382;-62
2022/08/08 10:17:08;;;;;;;8.23;6.72;;;37.40;99.90;;;;;;5051747;28;20462;-60
2022/08/08 10:19:36;;;;;;;9.13;7.00;;;38.30;99.90;;;;;;5052155;28;20378;-64
2022/08/08 10:22:04;;;;;;;7.70;6.78;;;38.40;99.90;;;;;;5052049;28;20377;-61
2022/08/08 10:24:31;;;;;;;8.30;6.80;;;38.30;99.90;;;;;;5051395;28;20381;-60
2022/08/08 10:27:05;;;;;;;8.50;7.30;;;37.70;99.90;;;;;;5051366;28;20451;-63
2022/08/08 10:29:38;;;;;;;8.02;6.72;;;36.70;99.90;;;;;;5051797;28;20420;-62
2022/08/08 10:34:58;;;;;;;8.20;6.90;;;36.40;99.90;;;;;;5051838;28;20373;-62
2022/08/08 10:37:32;;;;;;;7.28;6.53;;;37.20;99.90;;;;;;5050934;28;20535;-62
2022/08/08 10:40:00;;;;;;;7.82;6.35;;;37.10;99.90;;;;;;5051927;28;20761;-62
2022/08/08 10:42:34;;;;;;;8.15;6.82;;;37.20;99.90;;;;;;5051068;28;20412;-63
2022/08/08 10:45:05;;;;;;;8.10;7.30;;;35.70;99.90;;;;;;5051362;28;20388;-60
2022/08/08 10:47:31;;;;;;;8.30;7.50;;;34.70;99.90;;;;;;5050851;28;20413;-61
2022/08/08 10:49:59;;;;;;;8.00;7.20;;;34.20;99.90;;;;;;5051499;28;20499;-60
2022/08/08 10:52:28;;;;;;;8.68;6.18;;;33.50;99.90;;;;;;5051326;28;20468;-62
2022/08/08 10:54:57;;;;;;;8.63;7.07;;;33.50;99.90;;;;;;5051363;28;20834;-62
2022/08/08 10:57:23;;;;;;;7.45;6.75;;;33.60;99.90;;;;;;5050234;28;20413;-60
2022/08/08 10:59:58;;;;;;;8.90;7.50;;;33.50;99.90;;;;;;5051444;28;20386;-61
2022/08/08 11:02:29;;;;;;;7.65;6.85;;;33.60;99.90;;;;;;5050665;28;20410;-60
2022/08/08 11:05:04;;;;;;;9.00;6.70;;;33.20;99.90;;;;;;5033101;28;20408;-60
2022/08/08 11:07:35;;;;;;;8.23;5.80;;;33.10;99.90;;;;;;5050794;28;20388;-60
2022/08/08 11:10:05;;;;;;;7.20;5.75;;;33.10;99.90;;;;;;5051039;28;20468;-60
2022/08/08 11:12:44;;;;;;;8.25;6.00;;;33.10;99.90;;;;;;5051126;28;20850;-60
2022/08/08 11:15:13;;;;;;;6.93;5.20;;;33.40;99.90;;;;;;5030364;28;20375;-61
2022/08/08 11:17:40;;;;;;;7.63;6.55;;;33.30;99.90;;;;;;5031256;28;20438;-61
2022/08/08 11:20:08;;;;;;;8.85;7.30;;;33.00;99.90;;;;;;5030800;28;20379;-66
2022/08/08 11:22:35;;;;;;;8.48;7.57;;;32.80;99.90;;;;;;5030702;28;20394;-60
2022/08/08 11:25:02;;;;;;;8.60;6.53;;;32.90;99.90;;;;;;5030430;28;20407;-61
2022/08/08 11:27:32;;;;;;;9.45;6.30;;;32.30;99.90;;;;;;5029840;28;20404;-61
2022/08/08 11:29:59;;;;;;;9.10;7.10;;;32.20;99.90;;;;;;5030945;28;20911;-60
2022/08/08 11:32:29;;;;;;;8.32;6.65;;;31.50;99.90;;;;;;5029971;28;20411;-61
2022/08/08 11:35:06;;;;;;;8.10;7.30;;;31.70;99.90;;;;;;5030836;28;20499;-61
2022/08/08 11:37:33;;;;;;;7.20;6.50;;;31.80;99.90;;;;;;5030557;28;20412;-61
2022/08/08 11:40:02;;;;;;;7.00;6.10;;;31.50;99.90;;;;;;5030618;28;20387;-63
2022/08/08 11:42:29;;;;;;;8.30;6.80;;;31.70;99.90;;;;;;5029683;28;20995;-61
2022/08/08 11:44:56;;;;;;;9.02;7.57;;;31.70;99.90;;;;;;5030366;28;20650;-63
2022/08/08 11:47:23;;;;;;;10.00;9.10;;;32.40;99.90;;;;;;5029921;28;20824;-62
2022/08/08 11:49:56;;;;;;;7.78;5.55;;;33.00;99.90;;;;;;5030966;28;20375;-61
2022/08/08 11:52:23;;;;;;;6.95;5.75;;;32.90;99.90;;;;;;5030467;28;20458;-61
2022/08/08 11:54:49;;;;;;;7.30;6.07;;;32.80;99.90;;;;;;5029645;28;20740;-61
2022/08/08 11:57:25;;;;;;;8.30;5.80;;;32.70;99.90;;;;;;5029639;28;20415;-61
2022/08/08 11:59:50;;;;;;;6.55;4.93;;;32.60;99.90;;;;;;5030942;28;20402;-63
2022/08/08 12:02:16;;;;;;;9.00;5.70;;;32.70;99.90;;;;;;5030362;28;20392;-61
2022/08/08 12:04:42;;;;;;;8.23;5.88;;;32.60;99.90;;;;;;5030493;28;20379;-61
2022/08/08 12:07:08;;;;;;;7.50;6.47;;;32.60;99.90;;;;;;5030033;28;20391;-61
2022/08/08 12:09:34;;;;;;;6.43;5.30;;;32.50;99.90;;;;;;5030438;28;20414;-61
2022/08/08 12:12:00;;;;;;;7.53;6.00;;;32.00;99.90;;;;;;5030518;28;20484;-61
2022/08/08 12:14:26;;;;;;;7.53;6.70;;;31.80;99.90;;;;;;5043178;28;20879;-61
2022/08/08 12:16:53;;;;;;;7.63;6.10;;;31.80;99.90;;;;;;5049800;28;20426;-62
2022/08/08 12:19:20;;;;;;;6.32;5.10;;;32.00;99.90;;;;;;5049133;28;20420;-61
2022/08/08 12:21:46;;;;;;;7.32;6.05;;;32.10;99.90;;;;;;5032243;28;20381;-61
2022/08/08 12:24:16;;;;;;;7.28;6.05;;;31.70;99.90;;;;;;5049111;28;20378;-61
2022/08/08 12:26:43;;;;;;;7.10;6.10;;;31.50;99.90;;;;;;5050130;28;20432;-61
2022/08/08 12:29:30;;;;;;;7.18;5.70;;;31.50;99.90;;;;;;5049519;28;20440;-67
2022/08/08 12:32:07;;;;;;;7.80;6.60;;;31.40;99.90;;;;;;5050100;28;20890;-61
2022/08/08 12:34:41;;;;;;;8.05;6.70;;;31.50;99.90;;;;;;5050017;28;20457;-61
2022/08/08 12:37:09;;;;;;;7.57;6.78;;;31.70;99.90;;;;;;5049259;28;20421;-61
2022/08/08 12:39:37;;;;;;;7.18;6.30;;;31.90;99.90;;;;;;5049862;28;20381;-61
2022/08/08 12:42:03;;;;;;;7.60;6.35;;;32.10;99.90;;;;;;5050016;28;20468;-61
2022/08/08 12:44:30;;;;;;;10.00;6.43;;;32.20;99.90;;;;;;5048842;28;20374;-66
2022/08/08 12:46:57;;;;;;;7.57;5.20;;;32.70;99.90;;;;;;5049512;28;20419;-61
2022/08/08 12:49:31;;;;;;;7.13;5.90;;;32.40;99.90;;;;;;5049521;28;20374;-63
2022/08/08 12:51:58;;;;;;;7.60;5.53;;;32.30;99.90;;;;;;5050226;28;20865;-61
2022/08/08 12:54:31;;;;;;;9.20;5.90;;;32.20;99.90;;;;;;5048725;28;20393;-61
2022/08/08 12:56:57;;;;;;;7.10;6.13;;;31.90;99.90;;;;;;5048992;28;20780;-62
2022/08/08 12:59:29;;;;;;;8.73;6.00;;;31.80;99.90;;;;;;5048730;28;20385;-62
2022/08/08 13:01:59;;;;;;;7.20;6.50;;;31.90;99.90;;;;;;5049102;28;20386;-61
2022/08/08 13:04:33;;;;;;;7.40;6.20;;;32.20;99.90;;;;;;5048623;28;21180;-62
2022/08/08 13:07:04;;;;;;;7.30;6.50;;;32.30;99.90;;;;;;5051338;28;20878;-62
2022/08/08 13:09:32;;;;;;;7.90;6.65;;;32.00;99.90;;;;;;5053020;28;20381;-61
2022/08/08 13:11:58;;;;;;;7.85;6.18;;;31.70;99.90;;;;;;5053582;28;20378;-63
2022/08/08 13:14:44;;;;;;;7.80;6.40;;;31.60;99.90;;;;;;5052491;28;20412;-63
2022/08/08 13:17:11;;;;;;;8.27;6.55;;;31.70;99.90;;;;;;5052362;28;20413;-63
2022/08/08 13:19:37;;;;;;;8.80;6.13;;;31.70;99.90;;;;;;5053393;28;20448;-62
2022/08/08 13:22:03;;;;;;;7.90;5.75;;;31.50;99.90;;;;;;5053397;28;20384;-62
2022/08/08 13:24:29;;;;;;;7.72;6.65;;;31.40;99.90;;;;;;5052507;28;20396;-63
2022/08/08 13:27:05;;;;;;;7.40;5.97;;;31.50;99.90;;;;;;5053765;28;20933;-62
2022/08/08 13:29:31;;;;;;;7.60;6.80;;;32.60;99.90;;;;;;5053159;28;20482;-62